Time;durP1;ratioP1;P1;durP2;ratioP2;P2;SDS_P1;SDS_P2;PMS_P1;PMS_P2;Temp;Humidity;BMP_temperature;BMP_pressure;BME280_temperature;BME280_humidity;BME280_pressure;Samples;Min_cycle;Max_cycle;Signal;HPM_P1;HPM_P2
2022/11/18 00:01:30;;;;;;;14.98;13.23;;;6.20;99.90;;;;;;5006589;28;20045;-57
2022/11/18 00:03:56;;;;;;;14.80;12.18;;;6.40;99.90;;;;;;5024343;28;20045;-57
2022/11/18 00:06:24;;;;;;;15.10;12.82;;;6.20;99.90;;;;;;5023618;28;20569;-57
2022/11/18 00:08:51;;;;;;;14.32;12.73;;;6.40;99.90;;;;;;5024727;28;20053;-56
2022/11/18 00:14:18;;;;;;;14.45;12.90;;;6.30;99.90;;;;;;5024196;28;20077;-56
2022/11/18 00:16:45;;;;;;;13.90;11.52;;;7.10;99.90;;;;;;5006580;28;20057;-56
2022/11/18 00:19:11;;;;;;;15.55;13.60;;;6.10;99.90;;;;;;5025009;28;20113;-57
2022/11/18 00:21:37;;;;;;;17.77;13.70;;;6.80;99.90;;;;;;5023848;28;20594;-57
2022/11/18 00:24:04;;;;;;;19.35;15.27;;;6.30;99.90;;;;;;5024239;28;20508;-55
2022/11/18 00:26:29;;;;;;;17.13;14.20;;;6.20;99.90;;;;;;5024441;28;20111;-55
2022/11/18 00:28:55;;;;;;;17.88;14.48;;;6.30;99.90;;;;;;5006873;28;20049;-56
2022/11/18 00:31:20;;;;;;;16.98;15.18;;;6.30;99.90;;;;;;5024657;28;20095;-56
2022/11/18 00:33:46;;;;;;;17.88;15.07;;;6.40;99.90;;;;;;5024196;28;20412;-56
2022/11/18 00:36:12;;;;;;;17.55;14.75;;;6.20;99.90;;;;;;5024316;28;20037;-56
2022/11/18 00:38:39;;;;;;;18.10;15.10;;;6.30;99.90;;;;;;5024345;28;20096;-56
2022/11/18 00:41:06;;;;;;;17.42;14.73;;;6.50;99.90;;;;;;5025127;28;20435;-56
2022/11/18 00:43:32;;;;;;;17.20;15.02;;;6.20;99.90;;;;;;5024267;28;20053;-57
2022/11/18 00:45:58;;;;;;;17.67;14.40;;;6.30;99.90;;;;;;5023784;28;20133;-55
2022/11/18 00:48:24;;;;;;;16.23;14.02;;;6.50;99.90;;;;;;5022341;28;20128;-56
2022/11/18 00:50:51;;;;;;;16.67;14.45;;;6.20;99.90;;;;;;5023645;28;20255;-56
2022/11/18 00:53:18;;;;;;;18.52;15.43;;;6.00;99.90;;;;;;5024557;28;20054;-57
2022/11/18 00:55:43;;;;;;;18.55;14.90;;;6.20;99.90;;;;;;5024354;28;20170;-56
2022/11/18 00:58:13;;;;;;;18.75;14.68;;;6.20;99.90;;;;;;5006900;28;20547;-56
2022/11/18 01:00:43;;;;;;;19.25;14.73;;;6.60;99.90;;;;;;5024567;28;20038;-56
2022/11/18 01:03:10;;;;;;;17.90;15.07;;;6.20;99.90;;;;;;5023106;28;20404;-56
2022/11/18 01:05:36;;;;;;;18.65;15.00;;;6.30;99.90;;;;;;5023744;28;20056;-56
2022/11/18 01:08:03;;;;;;;18.33;15.55;;;6.00;99.90;;;;;;5023638;28;20353;-56
2022/11/18 01:10:29;;;;;;;18.90;14.90;;;6.20;99.90;;;;;;5024303;28;20539;-55
2022/11/18 01:15:40;;;;;;;18.42;14.50;;;6.00;99.90;;;;;;5023960;28;20053;-56
2022/11/18 01:18:06;;;;;;;17.83;14.98;;;6.60;99.90;;;;;;5023688;28;20049;-56
2022/11/18 01:20:33;;;;;;;19.98;15.25;;;6.00;99.90;;;;;;5023781;28;20041;-55
2022/11/18 01:22:59;;;;;;;18.85;16.10;;;6.10;99.90;;;;;;5023490;28;20045;-56
2022/11/18 01:25:25;;;;;;;20.10;14.80;;;6.30;99.90;;;;;;5024014;28;20069;-56
2022/11/18 01:27:51;;;;;;;19.13;15.07;;;6.00;99.90;;;;;;5022738;28;20085;-56
2022/11/18 01:30:16;;;;;;;19.98;16.05;;;6.20;99.90;;;;;;5023793;28;20096;-56
2022/11/18 01:32:43;;;;;;;21.13;16.80;;;6.00;99.90;;;;;;5022449;28;20033;-56
2022/11/18 01:35:10;;;;;;;23.08;17.15;;;6.40;99.90;;;;;;5023998;28;20201;-56
2022/11/18 01:37:36;;;;;;;21.67;17.65;;;6.00;99.90;;;;;;5022818;28;20453;-56
2022/11/18 01:40:06;;;;;;;23.75;17.73;;;6.20;99.90;;;;;;5023482;28;20088;-56
2022/11/18 01:42:32;;;;;;;22.45;18.55;;;6.20;99.90;;;;;;5023486;28;20049;-56
2022/11/18 01:45:08;;;;;;;30.40;19.20;;;6.10;99.90;;;;;;5022794;28;20052;-56
2022/11/18 01:47:48;;;;;;;24.08;19.35;;;5.90;99.90;;;;;;5022851;28;20048;-57
2022/11/18 01:50:18;;;;;;;25.10;19.00;;;6.20;99.90;;;;;;5005389;28;20049;-56
2022/11/18 01:52:45;;;;;;;24.42;18.70;;;6.10;99.90;;;;;;5023385;28;20349;-55
2022/11/18 01:55:28;;;;;;;24.15;19.33;;;5.80;99.90;;;;;;5023648;28;20033;-55
2022/11/18 01:58:02;;;;;;;24.27;19.60;;;6.00;99.90;;;;;;5021602;28;20073;-55
2022/11/18 02:00:27;;;;;;;25.03;17.97;;;5.90;99.90;;;;;;5023476;28;20045;-56
2022/11/18 02:02:53;;;;;;;23.20;18.20;;;5.90;99.90;;;;;;5022571;28;20044;-54
2022/11/18 02:05:20;;;;;;;24.00;18.63;;;6.00;99.90;;;;;;5015241;28;20492;-55
2022/11/18 02:07:46;;;;;;;21.08;16.13;;;5.90;99.90;;;;;;5023303;28;20528;-56
2022/11/18 02:10:21;;;;;;;24.77;18.55;;;5.90;99.90;;;;;;5021776;28;20076;-56
2022/11/18 02:12:49;;;;;;;23.80;18.38;;;5.90;99.90;;;;;;5022632;28;20806;-56
2022/11/18 02:15:16;;;;;;;25.23;18.83;;;6.00;99.90;;;;;;5022777;28;20697;-56
2022/11/18 02:18:14;;;;;;;19.95;14.30;;;5.80;99.90;;;;;;5022528;28;20109;-56
2022/11/18 02:20:43;;;;;;;22.23;17.27;;;6.00;99.90;;;;;;5022734;28;20786;-56
2022/11/18 02:23:31;;;;;;;24.23;19.15;;;5.80;99.90;;;;;;5022869;28;20055;-56
2022/11/18 02:26:27;;;;;;;23.38;18.30;;;6.00;99.90;;;;;;5022967;28;20092;-56
2022/11/18 02:29:02;;;;;;;;;;;5.80;99.90;;;;;;5022465;28;20132;-58
2022/11/18 02:31:43;;;;;;;25.73;18.63;;;5.80;99.90;;;;;;5022202;28;19925;-55
2022/11/18 02:34:42;;;;;;;23.00;18.10;;;5.90;99.90;;;;;;5004452;28;20037;-56
2022/11/18 02:37:28;;;;;;;22.70;17.75;;;5.80;99.90;;;;;;5021672;28;20121;-55
2022/11/18 02:40:17;;;;;;;22.30;18.30;;;6.00;99.90;;;;;;5022383;28;20045;-56
2022/11/18 02:42:47;;;;;;;24.35;18.42;;;6.00;99.90;;;;;;5021949;28;20041;-56
2022/11/18 02:45:16;;;;;;;23.92;18.63;;;5.80;99.90;;;;;;5022882;28;20593;-56
2022/11/18 02:47:46;;;;;;;21.73;17.88;;;6.00;99.90;;;;;;5022195;28;20263;-56
2022/11/18 02:50:21;;;;;;;22.92;18.45;;;5.90;99.90;;;;;;5022130;28;20045;-56
2022/11/18 02:52:48;;;;;;;;;;;6.00;99.90;;;;;;5022817;28;20084;-57
2022/11/18 02:55:15;;;;;;;22.30;17.45;;;6.00;99.90;;;;;;5004776;28;19924;-56
2022/11/18 02:57:43;;;;;;;25.40;18.52;;;5.80;99.90;;;;;;5020487;28;20041;-57
2022/11/18 03:00:10;;;;;;;22.90;18.92;;;5.70;99.90;;;;;;5022829;28;20402;-56
2022/11/18 03:02:48;;;;;;;22.85;18.25;;;5.80;99.90;;;;;;5021376;28;20372;-57
2022/11/18 03:05:32;;;;;;;22.65;19.30;;;5.90;99.90;;;;;;5020548;28;20571;-56
2022/11/18 03:08:06;;;;;;;23.48;19.75;;;5.90;99.90;;;;;;5022085;28;20121;-56
2022/11/18 03:10:40;;;;;;;22.87;19.63;;;5.80;99.90;;;;;;5021817;28;20060;-56
2022/11/18 03:13:41;;;;;;;25.35;20.40;;;5.90;99.90;;;;;;5021933;28;20600;-55
2022/11/18 03:16:16;;;;;;;24.42;19.33;;;5.90;99.90;;;;;;4940577;29;21133;-56
2022/11/18 03:19:01;;;;;;;;;;;6.00;99.90;;;;;;4977001;28;20062;-56
2022/11/18 03:21:38;;;;;;;25.90;19.05;;;5.70;99.90;;;;;;4969163;28;19929;-57
2022/11/18 03:24:13;;;;;;;23.83;20.05;;;5.90;99.90;;;;;;4962798;28;20084;-56
2022/11/18 03:26:45;;;;;;;23.42;19.42;;;5.80;99.90;;;;;;4969087;28;20088;-56
2022/11/18 03:29:29;;;;;;;22.95;18.20;;;5.70;99.90;;;;;;4981223;28;20134;-58
2022/11/18 03:32:02;;;;;;;24.00;19.33;;;5.70;99.90;;;;;;4984558;28;20064;-58
2022/11/18 03:34:33;;;;;;;24.25;18.38;;;5.90;99.90;;;;;;4986104;28;20326;-56
2022/11/18 03:37:01;;;;;;;23.35;18.55;;;5.90;99.90;;;;;;4985818;28;20084;-56
2022/11/18 03:39:31;;;;;;;23.92;19.80;;;5.70;99.90;;;;;;4984889;28;20089;-58
2022/11/18 03:42:05;;;;;;;22.00;18.10;;;5.70;99.90;;;;;;4985805;28;20576;-56
2022/11/18 03:44:36;;;;;;;22.80;17.30;;;6.00;99.90;;;;;;4985105;28;20046;-56
2022/11/18 03:47:09;;;;;;;24.08;19.00;;;5.80;99.90;;;;;;4985823;28;20054;-55
2022/11/18 03:49:57;;;;;;;23.45;19.38;;;5.90;99.90;;;;;;4986826;28;20078;-57
2022/11/18 03:52:29;;;;;;;23.70;18.35;;;5.70;99.90;;;;;;4986245;28;20053;-56
2022/11/18 03:54:58;;;;;;;20.58;16.70;;;6.00;99.90;;;;;;4986828;28;20097;-54
2022/11/18 03:57:38;;;;;;;19.80;14.95;;;5.60;99.90;;;;;;4987110;28;20534;-56
2022/11/18 04:00:10;;;;;;;19.05;14.98;;;5.60;99.90;;;;;;4986373;28;20125;-56
2022/11/18 04:02:36;;;;;;;18.98;15.55;;;5.80;99.90;;;;;;4985512;28;20188;-56
2022/11/18 04:05:05;;;;;;;17.95;14.75;;;5.80;99.90;;;;;;4985075;28;20092;-56
2022/11/18 04:07:32;;;;;;;19.40;15.55;;;5.60;99.90;;;;;;4986268;28;20088;-54
2022/11/18 04:10:18;;;;;;;18.35;14.85;;;5.60;99.90;;;;;;4986340;28;20034;-57
2022/11/18 04:13:07;;;;;;;20.05;15.32;;;5.70;99.90;;;;;;4985040;28;20054;-56
2022/11/18 04:15:36;;;;;;;20.02;15.50;;;5.60;99.90;;;;;;4998617;28;20088;-55
2022/11/18 04:18:02;;;;;;;19.55;15.15;;;5.70;99.90;;;;;;5023205;28;20125;-56
2022/11/18 04:20:28;;;;;;;16.08;12.95;;;5.80;99.90;;;;;;5025606;28;20128;-57
2022/11/18 04:22:54;;;;;;;19.50;14.57;;;5.70;99.90;;;;;;5025608;28;20037;-56
2022/11/18 04:25:19;;;;;;;16.52;12.93;;;5.60;99.90;;;;;;5025298;28;20069;-56
2022/11/18 04:27:45;;;;;;;19.10;13.63;;;5.60;99.90;;;;;;5024116;28;20085;-56
2022/11/18 04:30:11;;;;;;;18.13;14.10;;;5.80;99.90;;;;;;5025340;28;20041;-56
2022/11/18 04:32:37;;;;;;;17.73;13.63;;;5.80;99.90;;;;;;5024403;28;20384;-56
2022/11/18 04:35:03;;;;;;;19.08;14.88;;;5.50;99.90;;;;;;5024648;28;20120;-55
2022/11/18 04:37:29;;;;;;;20.20;14.48;;;5.50;99.90;;;;;;5025236;28;20240;-56
2022/11/18 04:39:54;;;;;;;21.38;14.80;;;5.70;99.90;;;;;;5024967;28;20076;-55
2022/11/18 04:42:20;;;;;;;18.80;13.43;;;5.80;99.90;;;;;;5023698;28;20053;-61
2022/11/18 04:44:45;;;;;;;19.65;13.75;;;5.70;99.90;;;;;;5024386;28;20048;-56
2022/11/18 04:47:11;;;;;;;19.00;13.32;;;5.50;99.90;;;;;;5006662;28;20041;-57
2022/11/18 04:49:37;;;;;;;19.75;13.05;;;5.70;99.90;;;;;;5024788;28;20520;-56
2022/11/18 04:52:03;;;;;;;20.10;13.93;;;6.00;99.90;;;;;;5024590;28;20045;-56
2022/11/18 04:54:29;;;;;;;23.88;14.45;;;5.70;99.90;;;;;;5024144;28;20048;-55
2022/11/18 04:56:54;;;;;;;21.85;13.63;;;5.70;99.90;;;;;;5024914;28;20646;-56
2022/11/18 04:59:23;;;;;;;22.42;14.55;;;5.60;99.90;;;;;;5024754;28;20056;-57
2022/11/18 05:01:50;;;;;;;21.10;14.02;;;5.70;99.90;;;;;;5023279;28;20049;-56
2022/11/18 05:04:21;;;;;;;20.95;13.15;;;5.50;99.90;;;;;;5024145;28;20045;-56
2022/11/18 05:06:47;;;;;;;19.10;13.43;;;5.70;99.90;;;;;;5020847;28;20037;-57
2022/11/18 05:09:13;;;;;;;17.15;11.98;;;5.70;99.90;;;;;;5024416;28;20045;-57
2022/11/18 05:14:28;;;;;;;17.08;11.23;;;5.70;99.90;;;;;;5024455;28;20084;-55
2022/11/18 05:16:55;;;;;;;20.17;13.35;;;5.60;99.90;;;;;;5022581;28;20061;-55
2022/11/18 05:19:21;;;;;;;18.23;13.23;;;5.80;99.90;;;;;;5023916;28;20057;-55
2022/11/18 05:21:46;;;;;;;19.30;13.20;;;5.80;99.90;;;;;;5024084;28;20050;-56
2022/11/18 05:24:12;;;;;;;21.90;14.60;;;5.70;99.90;;;;;;5023870;28;20451;-56
2022/11/18 05:26:38;;;;;;;22.02;14.07;;;5.60;99.90;;;;;;5023741;28;20045;-56
2022/11/18 05:29:04;;;;;;;21.95;14.43;;;5.70;99.90;;;;;;5023897;28;20045;-56
2022/11/18 05:31:29;;;;;;;19.75;14.40;;;5.80;99.90;;;;;;5023459;28;20516;-57
2022/11/18 05:33:55;;;;;;;22.13;14.27;;;5.70;99.90;;;;;;5022695;28;20041;-56
2022/11/18 05:36:21;;;;;;;22.70;15.57;;;5.80;99.90;;;;;;5005518;28;20049;-55
2022/11/18 05:38:48;;;;;;;22.95;15.52;;;5.70;99.90;;;;;;5023470;28;20362;-55
2022/11/18 05:43:09;;;;;;;22.75;16.23;;;5.70;99.90;;;;;;5024089;28;20037;-57
2022/11/18 05:44:00;;;;;;;26.73;16.55;;;5.70;99.90;;;;;;5023495;28;20525;-57
2022/11/18 05:46:26;;;;;;;24.15;17.15;;;6.30;99.90;;;;;;5023286;28;20136;-57
2022/11/18 05:48:52;;;;;;;23.98;17.52;;;5.50;99.90;;;;;;5022862;28;20184;-57
2022/11/18 05:51:18;;;;;;;23.42;16.70;;;5.50;99.90;;;;;;5023457;28;20077;-56
2022/11/18 05:53:43;;;;;;;25.40;18.63;;;5.70;99.90;;;;;;5022608;28;20794;-57
2022/11/18 05:56:26;;;;;;;25.83;17.83;;;5.60;99.90;;;;;;5006120;28;20049;-57
2022/11/18 05:58:52;;;;;;;27.27;18.85;;;5.60;99.90;;;;;;5023241;28;20037;-57
2022/11/18 06:01:32;;;;;;;30.52;19.65;;;5.60;99.90;;;;;;5004854;28;20125;-56
2022/11/18 06:04:00;;;;;;;30.58;21.40;;;5.50;99.90;;;;;;5022000;28;20624;-56
2022/11/18 06:06:26;;;;;;;31.92;21.92;;;5.50;99.90;;;;;;5022886;28;20112;-57
2022/11/18 06:09:14;;;;;;;31.88;21.40;;;5.50;99.90;;;;;;5023013;28;20045;-57
2022/11/18 06:11:45;;;;;;;32.85;22.42;;;5.50;99.90;;;;;;5022867;28;20463;-57
2022/11/18 06:14:23;;;;;;;32.10;21.58;;;5.90;99.90;;;;;;5004956;28;20041;-56
2022/11/18 06:16:53;;;;;;;32.05;21.95;;;5.60;99.90;;;;;;5021310;28;20107;-57
2022/11/18 06:19:18;;;;;;;39.42;23.73;;;5.50;99.90;;;;;;5022841;28;20051;-57
2022/11/18 06:21:45;;;;;;;35.60;24.63;;;5.50;99.90;;;;;;5022678;28;20135;-57
2022/11/18 06:24:12;;;;;;;37.20;24.35;;;5.40;99.90;;;;;;5021941;28;20037;-56
2022/11/18 06:26:38;;;;;;;36.13;24.00;;;5.30;99.90;;;;;;5023219;28;20209;-57
2022/11/18 06:29:06;;;;;;;32.10;23.00;;;5.40;99.90;;;;;;5023886;28;20113;-57
2022/11/18 06:31:32;;;;;;;33.42;23.00;;;5.40;99.90;;;;;;5022017;28;20435;-57
2022/11/18 06:33:57;;;;;;;32.75;22.35;;;5.40;99.90;;;;;;5022137;28;20106;-56
2022/11/18 06:36:23;;;;;;;28.52;19.98;;;5.30;99.90;;;;;;5022292;28;20227;-57
2022/11/18 06:38:49;;;;;;;30.63;19.05;;;5.40;99.90;;;;;;5023008;28;20044;-56
2022/11/18 06:41:14;;;;;;;27.45;17.73;;;5.50;99.90;;;;;;5022566;28;20037;-56
2022/11/18 06:43:40;;;;;;;29.48;17.48;;;5.30;99.90;;;;;;5022420;28;20227;-57
2022/11/18 06:48:53;;;;;;;24.38;15.98;;;5.40;99.90;;;;;;5022297;28;20457;-56
2022/11/18 06:51:19;;;;;;;24.52;16.25;;;5.90;99.90;;;;;;5022063;28;20480;-56
2022/11/18 06:53:45;;;;;;;25.90;16.58;;;5.40;99.90;;;;;;5022305;28;20052;-57
2022/11/18 06:56:13;;;;;;;27.70;16.95;;;5.20;99.90;;;;;;5022423;28;20069;-58
2022/11/18 06:58:39;;;;;;;24.95;16.83;;;5.30;99.90;;;;;;5022051;28;20693;-56
2022/11/18 07:01:13;;;;;;;25.92;17.00;;;5.60;99.90;;;;;;5021975;28;20099;-57
2022/11/18 07:03:44;;;;;;;28.33;16.83;;;5.20;99.90;;;;;;5022425;28;20041;-56
2022/11/18 07:06:11;;;;;;;27.60;17.73;;;5.30;99.90;;;;;;5006707;28;20041;-56
2022/11/18 07:08:38;;;;;;;25.55;17.90;;;5.10;99.90;;;;;;5026872;28;20102;-55
2022/11/18 07:11:06;;;;;;;25.85;18.23;;;5.20;99.90;;;;;;5026408;28;20073;-56
2022/11/18 07:13:32;;;;;;;27.05;18.55;;;5.30;99.90;;;;;;5025468;28;20061;-57
2022/11/18 07:16:16;;;;;;;27.77;19.63;;;5.10;99.90;;;;;;5025630;28;20053;-57
2022/11/18 07:18:43;;;;;;;28.33;18.73;;;5.10;99.90;;;;;;5025713;28;20046;-57
2022/11/18 07:21:29;;;;;;;28.73;19.73;;;5.30;99.90;;;;;;5007861;28;20049;-57
2022/11/18 07:23:55;;;;;;;32.30;20.63;;;5.40;99.90;;;;;;5024733;28;20050;-56
2022/11/18 07:26:22;;;;;;;32.13;21.08;;;5.30;99.90;;;;;;5025053;28;20048;-56
2022/11/18 07:28:47;;;;;;;34.45;21.50;;;5.20;99.90;;;;;;5026011;28;20164;-56
2022/11/18 07:31:18;;;;;;;29.00;19.52;;;5.10;99.90;;;;;;5025523;28;20037;-58
2022/11/18 07:33:45;;;;;;;29.25;20.42;;;5.20;99.90;;;;;;5024984;28;20045;-57
2022/11/18 07:36:16;;;;;;;28.33;19.65;;;5.20;99.90;;;;;;5025790;28;20662;-57
2022/11/18 07:38:43;;;;;;;26.48;17.85;;;5.00;99.90;;;;;;5026485;28;20057;-57
2022/11/18 07:41:17;;;;;;;27.33;18.13;;;5.90;99.90;;;;;;5025857;28;20388;-57
2022/11/18 07:43:44;;;;;;;29.63;18.20;;;5.20;99.90;;;;;;5025459;28;20045;-56
2022/11/18 07:46:12;;;;;;;27.75;17.85;;;5.10;99.90;;;;;;5025098;28;20576;-56
2022/11/18 07:48:39;;;;;;;29.45;18.85;;;5.30;99.90;;;;;;5026150;28;20069;-57
2022/11/18 07:51:05;;;;;;;24.58;16.90;;;5.10;99.90;;;;;;5025832;28;20468;-58
2022/11/18 07:53:32;;;;;;;26.30;18.55;;;5.10;99.90;;;;;;5025598;28;20450;-57
2022/11/18 07:55:58;;;;;;;26.85;18.70;;;6.20;99.90;;;;;;5025873;28;20045;-56
2022/11/18 07:58:24;;;;;;;27.38;18.00;;;6.00;99.90;;;;;;5025377;28;20045;-55
2022/11/18 08:00:49;;;;;;;29.15;18.00;;;5.30;99.90;;;;;;5025087;28;20033;-56
2022/11/18 08:03:15;;;;;;;26.08;17.48;;;5.60;99.90;;;;;;5025793;28;20033;-56
2022/11/18 08:05:41;;;;;;;28.58;18.55;;;5.90;99.90;;;;;;5025865;28;20131;-57
2022/11/18 08:08:06;;;;;;;30.85;19.83;;;6.10;99.90;;;;;;5025511;28;20179;-57
2022/11/18 08:10:32;;;;;;;32.03;20.48;;;5.50;99.90;;;;;;5018477;28;20056;-58
2022/11/18 08:12:58;;;;;;;26.50;18.45;;;5.20;99.90;;;;;;5013747;28;20038;-57
2022/11/18 08:15:24;;;;;;;28.48;18.30;;;5.30;99.90;;;;;;5012687;28;20045;-56
2022/11/18 08:17:49;;;;;;;26.88;18.33;;;5.10;99.90;;;;;;5015084;28;20064;-55
2022/11/18 08:20:15;;;;;;;25.58;17.30;;;5.10;99.90;;;;;;5013027;28;20042;-57
2022/11/18 08:22:41;;;;;;;27.02;16.65;;;5.00;99.90;;;;;;4996405;28;20055;-57
2022/11/18 08:25:07;;;;;;;29.70;17.63;;;5.20;99.90;;;;;;5014045;28;20034;-57
2022/11/18 08:27:33;;;;;;;27.95;17.25;;;5.00;99.90;;;;;;5024753;28;20079;-56
2022/11/18 08:29:58;;;;;;;27.35;18.73;;;5.10;99.90;;;;;;5025279;28;20044;-56
2022/11/18 08:32:24;;;;;;;30.98;19.58;;;5.40;99.90;;;;;;5024452;28;20515;-57
2022/11/18 08:34:50;;;;;;;33.97;21.00;;;4.90;99.90;;;;;;5024848;28;20464;-56
2022/11/18 08:37:16;;;;;;;36.10;21.88;;;4.90;99.90;;;;;;5025072;28;20607;-56
2022/11/18 08:39:42;;;;;;;35.63;20.98;;;5.20;99.90;;;;;;5025287;28;20073;-58
2022/11/18 08:42:11;;;;;;;31.80;20.85;;;4.90;99.90;;;;;;5024762;28;20188;-57
2022/11/18 08:44:36;;;;;;;34.97;20.85;;;5.00;99.90;;;;;;5024912;28;20553;-56
2022/11/18 08:47:02;;;;;;;32.15;20.38;;;5.00;99.90;;;;;;5023894;28;20057;-57
2022/11/18 08:49:28;;;;;;;31.65;21.52;;;4.70;99.90;;;;;;5024109;28;20562;-57
2022/11/18 08:51:54;;;;;;;35.80;21.98;;;4.90;99.90;;;;;;5022964;28;20041;-56
2022/11/18 08:54:19;;;;;;;33.63;21.10;;;4.90;99.90;;;;;;5024320;28;20045;-57
2022/11/18 08:56:45;;;;;;;32.92;20.77;;;5.00;99.90;;;;;;5024003;28;20700;-57
2022/11/18 08:59:12;;;;;;;32.97;20.75;;;5.20;99.90;;;;;;5024182;28;20042;-57
2022/11/18 09:01:40;;;;;;;31.27;20.10;;;5.00;99.90;;;;;;5022373;28;20038;-57
2022/11/18 09:04:06;;;;;;;29.02;18.98;;;4.90;99.90;;;;;;5013651;28;20053;-57
2022/11/18 09:06:33;;;;;;;27.75;18.13;;;4.90;99.90;;;;;;5002973;28;20045;-56
2022/11/18 09:08:59;;;;;;;30.38;19.70;;;5.00;99.90;;;;;;5011668;28;20488;-56
2022/11/18 09:11:26;;;;;;;25.67;18.05;;;5.00;99.90;;;;;;5012588;28;20045;-56
2022/11/18 09:13:57;;;;;;;28.25;17.38;;;5.10;99.90;;;;;;5013021;28;20046;-57
2022/11/18 09:16:24;;;;;;;26.30;16.52;;;6.10;99.90;;;;;;5010709;28;20057;-57
2022/11/18 09:18:50;;;;;;;27.30;17.27;;;4.90;99.90;;;;;;5010869;28;20136;-57
2022/11/18 09:21:17;;;;;;;28.92;18.42;;;4.80;99.90;;;;;;5010166;28;20128;-55
2022/11/18 09:23:43;;;;;;;27.20;18.60;;;5.10;99.90;;;;;;5022218;28;20037;-56
2022/11/18 09:26:11;;;;;;;26.95;17.48;;;5.40;99.90;;;;;;5023039;28;20033;-57
2022/11/18 09:28:37;;;;;;;28.88;17.73;;;4.90;99.90;;;;;;5004443;28;20126;-56
2022/11/18 09:31:05;;;;;;;24.65;17.55;;;4.90;99.90;;;;;;5022440;28;20041;-57
2022/11/18 09:33:31;;;;;;;26.42;16.52;;;5.10;99.90;;;;;;5022743;28;20432;-57
2022/11/18 09:35:56;;;;;;;26.98;16.63;;;4.90;99.90;;;;;;5021908;28;20396;-56
2022/11/18 09:38:22;;;;;;;23.75;15.07;;;6.00;99.90;;;;;;5022516;28;20056;-55
2022/11/18 09:41:06;;;;;;;26.95;16.27;;;4.80;99.90;;;;;;5005262;28;20418;-56
2022/11/18 09:43:52;;;;;;;25.27;16.95;;;4.70;99.90;;;;;;5023908;28;20447;-55
2022/11/18 09:46:38;;;;;;;24.25;16.02;;;4.80;99.90;;;;;;5005106;28;20092;-56
2022/11/18 09:49:15;;;;;;;25.10;13.30;;;4.80;99.90;;;;;;5023225;28;20116;-57
2022/11/18 09:51:47;;;;;;;24.50;15.88;;;4.70;99.90;;;;;;5023467;28;20156;-56
2022/11/18 09:54:20;;;;;;;28.60;18.15;;;4.60;99.90;;;;;;5024039;28;20060;-57
2022/11/18 09:56:47;;;;;;;29.65;18.23;;;4.70;99.90;;;;;;5023668;28;20235;-57
2022/11/18 09:59:16;;;;;;;32.33;19.73;;;4.60;99.90;;;;;;5023424;28;20419;-56
2022/11/18 10:01:42;;;;;;;29.77;18.55;;;4.50;99.90;;;;;;5005310;28;20053;-57
2022/11/18 10:04:27;;;;;;;31.38;20.27;;;4.50;99.90;;;;;;5021396;28;20554;-57
2022/11/18 10:06:52;;;;;;;27.02;18.35;;;4.70;99.90;;;;;;5019355;28;20045;-57
2022/11/18 10:09:34;;;;;;;29.17;16.85;;;4.60;99.90;;;;;;5023417;28;20633;-55
2022/11/18 10:12:23;;;;;;;34.88;19.80;;;4.40;99.90;;;;;;5022479;28;20034;-57
2022/11/18 10:15:11;;;;;;;33.10;19.75;;;4.50;99.90;;;;;;4987980;28;20068;-57
2022/11/18 10:17:53;;;;;;;31.20;17.70;;;4.50;99.90;;;;;;5020175;28;20045;-56
2022/11/18 10:20:35;;;;;;;28.15;18.52;;;4.30;99.90;;;;;;5004224;28;20061;-57
2022/11/18 10:23:06;;;;;;;31.17;18.40;;;4.50;99.90;;;;;;5020870;28;20183;-57
2022/11/18 10:25:32;;;;;;;27.02;16.58;;;4.50;99.90;;;;;;5021565;28;20052;-55
2022/11/18 10:28:13;;;;;;;29.02;18.77;;;4.50;99.90;;;;;;5021183;28;20500;-57
2022/11/18 10:30:39;;;;;;;36.08;18.60;;;4.40;99.90;;;;;;5020395;28;20084;-57
2022/11/18 10:33:38;;;;;;;30.35;16.10;;;4.30;99.90;;;;;;5021391;28;20085;-56
2022/11/18 10:36:23;;;;;;;30.98;19.17;;;4.40;99.90;;;;;;4967874;28;20704;-55
2022/11/18 10:39:09;;;;;;;28.40;17.98;;;4.50;99.90;;;;;;5022080;28;20049;-57
2022/11/18 10:41:44;;;;;;;29.98;17.50;;;4.40;99.90;;;;;;5019313;28;20087;-57
2022/11/18 10:44:26;;;;;;;;;;;4.30;99.90;;;;;;5019106;28;20044;-57
2022/11/18 10:46:52;;;;;;;28.20;17.95;;;4.30;99.90;;;;;;5002729;28;19924;-56
2022/11/18 10:49:17;;;;;;;29.48;17.58;;;4.60;99.90;;;;;;5021104;28;20512;-56
2022/11/18 10:51:45;;;;;;;28.80;17.58;;;4.20;99.90;;;;;;5003114;28;20052;-57
2022/11/18 10:54:21;;;;;;;27.67;18.95;;;4.10;99.90;;;;;;5019568;28;20041;-57
2022/11/18 10:56:51;;;;;;;26.85;17.40;;;4.30;99.90;;;;;;5021500;28;20424;-57
2022/11/18 10:59:28;;;;;;;32.05;17.77;;;4.10;99.90;;;;;;5020860;28;20287;-57
2022/11/18 11:02:20;;;;;;;30.85;19.42;;;4.30;99.90;;;;;;5021867;28;20049;-57
2022/11/18 11:04:48;;;;;;;28.75;18.85;;;4.40;99.90;;;;;;5010334;28;20053;-58
2022/11/18 11:07:26;;;;;;;28.30;18.38;;;4.60;99.90;;;;;;5022813;28;20056;-57
2022/11/18 11:10:03;;;;;;;28.00;18.13;;;4.20;99.90;;;;;;5022089;28;20080;-56
2022/11/18 11:12:36;;;;;;;27.05;17.48;;;4.20;99.90;;;;;;5022321;28;20091;-57
2022/11/18 11:15:09;;;;;;;25.55;15.82;;;4.20;99.90;;;;;;5021309;28;20049;-57
2022/11/18 11:18:40;;;;;;;26.33;16.95;;;4.10;99.90;;;;;;5021578;28;20107;-56
2022/11/18 11:20:35;;;;;;;29.42;17.35;;;4.10;99.90;;;;;;5022003;28;20154;-56
2022/11/18 11:23:06;;;;;;;27.00;17.65;;;4.20;99.90;;;;;;5022232;28;20041;-56
2022/11/18 11:25:55;;;;;;;27.42;16.65;;;4.00;99.90;;;;;;5022221;28;20132;-57
2022/11/18 11:28:27;;;;;;;30.25;19.83;;;3.90;99.90;;;;;;5021807;28;20082;-56
2022/11/18 11:31:14;;;;;;;28.67;18.55;;;4.00;99.90;;;;;;5021732;28;20045;-57
2022/11/18 11:33:39;;;;;;;30.70;18.92;;;4.00;99.90;;;;;;5021454;28;20096;-57
2022/11/18 11:36:29;;;;;;;31.38;18.38;;;4.10;99.90;;;;;;5022043;28;20492;-56
2022/11/18 11:39:23;;;;;;;30.13;19.45;;;4.00;99.90;;;;;;5021302;28;20042;-56
2022/11/18 11:42:05;;;;;;;30.30;17.75;;;4.20;99.90;;;;;;5022200;28;20056;-55
2022/11/18 11:44:43;;;;;;;29.58;18.92;;;4.20;99.90;;;;;;5004524;28;20049;-56
2022/11/18 11:47:48;;;;;;;26.98;17.63;;;4.00;99.90;;;;;;5022103;28;20045;-57
2022/11/18 11:50:54;;;;;;;30.98;17.58;;;4.00;99.90;;;;;;5022647;28;20060;-55
2022/11/18 11:53:30;;;;;;;;;;;4.20;99.90;;;;;;5025936;28;20115;-57
2022/11/18 11:56:16;;;;;;;24.00;15.75;;;3.90;99.90;;;;;;5025288;28;20315;-57
2022/11/18 11:59:11;;;;;;;27.23;16.45;;;4.10;99.90;;;;;;5025862;28;20057;-57
2022/11/18 12:01:54;;;;;;;25.53;16.17;;;4.00;99.90;;;;;;5007369;28;20100;-57
2022/11/18 12:04:41;;;;;;;22.98;14.23;;;4.00;99.90;;;;;;5007260;28;20038;-56
2022/11/18 12:07:16;;;;;;;25.08;17.13;;;4.00;99.90;;;;;;5025827;28;20049;-56
2022/11/18 12:10:01;;;;;;;26.92;18.00;;;4.00;99.90;;;;;;5025536;28;20053;-55
2022/11/18 12:12:41;;;;;;;27.13;16.93;;;3.80;99.90;;;;;;5025588;28;20052;-54
2022/11/18 12:15:22;;;;;;;24.98;16.45;;;3.80;99.90;;;;;;5024328;28;20292;-57
2022/11/18 12:18:16;;;;;;;27.05;16.73;;;3.90;99.90;;;;;;5024543;28;20136;-57
2022/11/18 12:20:45;;;;;;;25.40;16.10;;;3.90;99.90;;;;;;5023589;28;20476;-57
2022/11/18 12:23:21;;;;;;;27.30;17.05;;;3.80;99.90;;;;;;5004390;28;20337;-56
2022/11/18 12:25:47;;;;;;;26.60;17.08;;;3.70;99.90;;;;;;5005225;28;20100;-58
2022/11/18 12:28:37;;;;;;;27.70;18.23;;;3.70;99.90;;;;;;5003600;28;20069;-58
2022/11/18 12:31:17;;;;;;;27.98;18.70;;;3.90;99.90;;;;;;5003431;28;20500;-56
2022/11/18 12:33:52;;;;;;;25.63;17.58;;;3.70;99.90;;;;;;5004527;28;20612;-56
2022/11/18 12:36:28;;;;;;;;;;;3.70;99.90;;;;;;5004717;28;20037;-57
2022/11/18 12:38:55;;;;;;;28.73;18.02;;;3.70;99.90;;;;;;5003398;28;19996;-57
2022/11/18 12:44:25;;;;;;;30.15;19.45;;;3.70;99.90;;;;;;5016662;28;20080;-56
2022/11/18 12:47:35;;;;;;;29.00;16.80;;;4.40;99.90;;;;;;5023745;28;20083;-57
2022/11/18 12:50:01;;;;;;;33.00;19.55;;;3.70;99.90;;;;;;5007854;28;20052;-56
2022/11/18 12:52:29;;;;;;;29.73;18.38;;;4.00;99.90;;;;;;5024032;28;20038;-56
2022/11/18 12:54:58;;;;;;;29.83;19.17;;;3.70;99.90;;;;;;5023156;28;20045;-57
2022/11/18 12:57:34;;;;;;;29.02;18.17;;;3.50;99.90;;;;;;5023404;28;20049;-56
2022/11/18 13:00:28;;;;;;;29.83;18.98;;;3.90;99.90;;;;;;5023016;28;20128;-56
2022/11/18 13:03:00;;;;;;;30.05;18.10;;;3.50;99.90;;;;;;5020195;28;20742;-56
2022/11/18 13:05:34;;;;;;;30.92;18.92;;;5.10;99.90;;;;;;5003175;28;20257;-57
2022/11/18 13:08:13;;;;;;;32.67;21.13;;;3.40;99.90;;;;;;5015795;28;20046;-54
2022/11/18 13:11:43;;;;;;;29.13;18.48;;;3.50;99.90;;;;;;5019117;28;20057;-57
2022/11/18 13:13:43;;;;;;;28.40;18.48;;;3.50;99.90;;;;;;5022744;28;20056;-56
2022/11/18 13:19:08;;;;;;;27.88;18.02;;;3.40;99.90;;;;;;5023511;28;20288;-56